Tuesday, October 16, 2018, 11:27 PM GMT
Back to Local

CYQB, Quebec, Que

Location: , , Canada Lat: 46.8
Local Time: 11:27 PM GMT (23:27 GMT) Lon: -71.383
Time Zone: GMT Elev: 229 ft

Show me the last for .
Show Coded

Time T Td Feel RH Dir Speed Gust Alt SLP Vis Weather Sky Remarks
2018-10-16 23:00 37 30 34 74 240° 5 - 29.88 29.89 15 SCT050 BKN065 None
2018-10-16 22:00 37 28 31 69 240° 8 - 29.87 29.89 30 FEW040 SCT072 SCT130 None
2018-10-16 21:00 41 28 31 60 250° 15 22 29.87 29.88 30 SCT041 BKN060 BKN250 None
2018-10-16 20:00 43 28 32 56 260° 23 30 29.86 29.87 30 BKN045 BKN250 None
2018-10-16 19:00 43 28 33 56 270° 18 28 29.87 29.88 30 BKN047 BKN250 None
2018-10-16 18:00 43 28 33 56 270° 15 25 29.86 29.87 30 BKN045 None
2018-10-16 17:00 43 30 32 60 260° 21 30 29.88 29.89 30 BKN035 BKN250 None
2018-10-16 16:00 41 28 29 60 250° 24 32 29.86 29.87 30 BKN035 None
2018-10-16 15:00 41 28 30 60 270° 18 28 29.87 29.88 30 BKN040 BKN240 None
2018-10-16 14:00 39 28 28 64 260° 16 29 29.86 29.87 30 BKN039 None
2018-10-16 13:00 39 27 27 60 270° 22 35 29.84 29.85 30 BKN042 Virga in the vinicity
2018-10-16 12:32 37 28 25 69 270° 16 28 29.82 29.83 15 BKN035 Virga in the vinicity
Pressure rising rapidly
2018-10-16 12:00 37 32 26 80 280° 14 24 29.79 29.80 10 -SHRA BKN032 Pressure rising rapidly
2018-10-16 11:42 37 32 25 80 270° 18 30 29.77 29.78 15 -SHRA BKN044 Pressure rising rapidly
2018-10-16 11:00 39 30 26 69 260° 24 36 29.71 29.72 15 OVC034 Pressure rising rapidly
2018-10-16 10:23 39 32 26 75 260° 24 40 29.65 29.67 10 OVC032 None
2018-10-16 10:00 39 32 26 75 260° 29 40 29.63 29.65 10 -RA OVC030 None
2018-10-16 09:00 37 34 23 86 260° 30 43 29.57 29.58 10 -RA OVC030 Pressure rising rapidly
2018-10-16 08:00 39 34 26 80 260° 31 38 29.53 29.54 10 -RA OVC030 None
2018-10-16 07:47 39 34 25 80 260° 28 43 29.52 29.53 10 BKN034 OVC080 None
2018-10-16 07:25 39 36 25 86 260° 37 51 29.52 29.53 4 -RA BR OVC030 None
2018-10-16 07:00 43 34 31 70 240° 25 39 29.51 29.52 15 BKN030 BKN130 None
2018-10-16 06:00 43 36 32 75 260° 21 30 29.55 29.56 15 BKN030 BKN130 Pressure rising rapidly
2018-10-16 05:00 45 37 33 75 250° 29 45 29.51 29.52 15 SCT047 Pressure rising rapidly
2018-10-16 04:00 50 45 42 81 240° 25 33 29.49 29.50 15 BKN040 BKN100 None
2018-10-16 03:43 50 46 42 87 240° 22 30 29.49 29.50 15 BKN022 None
2018-10-16 03:22 50 48 43 93 240° 14 22 29.49 29.50 15 BKN013 None
2018-10-16 03:00 50 48 43 93 250° 14 21 29.49 29.50 12 BKN009 None
2018-10-16 02:26 48 48 42 100 250° 15 - 29.50 29.51 12 FEW003 BKN009 None
2018-10-16 02:00 48 48 44 100 250° 9 - 29.51 29.52 12 FEW002 BKN011 OVC050 None
2018-10-16 01:53 48 48 44 100 250° 9 - 29.51 29.52 12 FEW002 BKN011 OVC050 None
2018-10-16 01:15 46 46 - 100 Variable 2 - 29.50 29.51 0 -RA BR SCT002 OVC004 None
2018-10-16 01:00 46 46 - 100 Variable 2 - 29.50 29.51 1 -RA BR BKN003 OVC005 None
2018-10-16 00:00 46 46 45 100 60° 3 - 29.51 29.52 1 -RA BR BKN003 OVC005 None

Support USWX by starting your Amazon purchase here.